Barnerville, New York
Current Conditions -  °F | °C
As of 6:15 AM on Friday 24 Oct 2014 (Local Time) from KNY0 Reporting Station
Overcast Overcast  
Wind Chill: 38°   Ceiling: 1900
Heat Index: 42°   Visibility: 5mi
Dew Point: 41°   Wind: 7mph
Humidity: 95%   Direction: 270°W
Pressure: 29.83"   Gusts: NA
Location:  42.7023°N, 74.392°W
Report Text: KNY0 241015Z AUTO 27006KT 5SM BKN019 OVC024 06/05 A2983 RMK AO2 T00570050
Loading
Personal Weather Stations






























Interactive Weather Map New forecast layout! Learn more

10-Day Weather Forecast

Advertisements
Track Severe Weather on mobile